sensor_id;sensor_type;location;lat;lon;timestamp;temperature;humidity
59881;DHT22;45751;51.380;10.326;2023-04-01T00:01:28;8.80;99.90
59881;DHT22;45751;51.380;10.326;2023-04-01T00:03:55;8.80;99.90
59881;DHT22;45751;51.380;10.326;2023-04-01T00:06:23;8.80;99.90
59881;DHT22;45751;51.380;10.326;2023-04-01T00:08:50;8.80;99.90
59881;DHT22;45751;51.380;10.326;2023-04-01T00:11:18;8.70;99.90
59881;DHT22;45751;51.380;10.326;2023-04-01T00:13:47;8.80;99.90
59881;DHT22;45751;51.380;10.326;2023-04-01T00:16:14;8.70;99.90
59881;DHT22;45751;51.380;10.326;2023-04-01T00:18:44;8.60;99.90
59881;DHT22;45751;51.380;10.326;2023-04-01T00:21:14;8.70;99.90
59881;DHT22;45751;51.380;10.326;2023-04-01T00:23:41;8.70;99.90
59881;DHT22;45751;51.380;10.326;2023-04-01T00:26:08;8.70;99.90
59881;DHT22;45751;51.380;10.326;2023-04-01T00:28:36;8.60;99.90
59881;DHT22;45751;51.380;10.326;2023-04-01T00:31:05;8.70;99.90
59881;DHT22;45751;51.380;10.326;2023-04-01T00:33:33;8.60;99.90
59881;DHT22;45751;51.380;10.326;2023-04-01T00:36:11;8.60;99.90
59881;DHT22;45751;51.380;10.326;2023-04-01T00:38:38;8.60;99.90
59881;DHT22;45751;51.380;10.326;2023-04-01T00:41:06;8.60;99.90
59881;DHT22;45751;51.380;10.326;2023-04-01T00:43:33;8.60;99.90
59881;DHT22;45751;51.380;10.326;2023-04-01T00:46:01;8.60;99.90
59881;DHT22;45751;51.380;10.326;2023-04-01T00:48:31;8.60;99.90
59881;DHT22;45751;51.380;10.326;2023-04-01T00:51:04;8.60;99.90
59881;DHT22;45751;51.380;10.326;2023-04-01T00:53:33;8.60;99.90
59881;DHT22;45751;51.380;10.326;2023-04-01T00:58:56;8.60;99.90
59881;DHT22;45751;51.380;10.326;2023-04-01T01:01:24;8.50;99.90
59881;DHT22;45751;51.380;10.326;2023-04-01T01:03:52;8.50;99.90
59881;DHT22;45751;51.380;10.326;2023-04-01T01:09:10;8.50;99.90
59881;DHT22;45751;51.380;10.326;2023-04-01T01:17:32;8.50;99.90
59881;DHT22;45751;51.380;10.326;2023-04-01T01:26:52;8.50;99.90
59881;DHT22;45751;51.380;10.326;2023-04-01T01:30:25;8.40;99.90
59881;DHT22;45751;51.380;10.326;2023-04-01T01:34:55;8.40;99.90
59881;DHT22;45751;51.380;10.326;2023-04-01T01:37:26;8.40;99.90
59881;DHT22;45751;51.380;10.326;2023-04-01T01:40:04;8.40;99.90
59881;DHT22;45751;51.380;10.326;2023-04-01T01:42:36;8.40;99.90
59881;DHT22;45751;51.380;10.326;2023-04-01T01:45:05;8.40;99.90
59881;DHT22;45751;51.380;10.326;2023-04-01T01:47:34;8.40;99.90
59881;DHT22;45751;51.380;10.326;2023-04-01T01:50:04;8.40;99.90
59881;DHT22;45751;51.380;10.326;2023-04-01T01:52:32;8.30;99.90
59881;DHT22;45751;51.380;10.326;2023-04-01T01:54:58;8.40;99.90
59881;DHT22;45751;51.380;10.326;2023-04-01T01:57:36;8.40;99.90
59881;DHT22;45751;51.380;10.326;2023-04-01T02:00:10;8.30;99.90
59881;DHT22;45751;51.380;10.326;2023-04-01T02:02:46;8.30;99.90
59881;DHT22;45751;51.380;10.326;2023-04-01T02:05:20;8.30;99.90
59881;DHT22;45751;51.380;10.326;2023-04-01T02:07:54;8.30;99.90
59881;DHT22;45751;51.380;10.326;2023-04-01T02:10:25;8.30;99.90
59881;DHT22;45751;51.380;10.326;2023-04-01T02:12:57;8.30;99.90
59881;DHT22;45751;51.380;10.326;2023-04-01T02:15:28;8.30;99.90
59881;DHT22;45751;51.380;10.326;2023-04-01T02:17:58;8.30;99.90
59881;DHT22;45751;51.380;10.326;2023-04-01T02:20:27;8.30;99.90
59881;DHT22;45751;51.380;10.326;2023-04-01T02:22:57;8.20;99.90
59881;DHT22;45751;51.380;10.326;2023-04-01T02:25:34;8.30;99.90
59881;DHT22;45751;51.380;10.326;2023-04-01T02:28:04;8.30;99.90
59881;DHT22;45751;51.380;10.326;2023-04-01T02:30:35;8.20;99.90
59881;DHT22;45751;51.380;10.326;2023-04-01T02:33:04;8.20;99.90
59881;DHT22;45751;51.380;10.326;2023-04-01T02:35:34;8.30;99.90
59881;DHT22;45751;51.380;10.326;2023-04-01T02:38:03;8.30;99.90
59881;DHT22;45751;51.380;10.326;2023-04-01T02:40:44;8.30;99.90
59881;DHT22;45751;51.380;10.326;2023-04-01T02:43:12;8.20;99.90
59881;DHT22;45751;51.380;10.326;2023-04-01T02:45:39;8.20;99.90
59881;DHT22;45751;51.380;10.326;2023-04-01T02:48:06;8.20;99.90
59881;DHT22;45751;51.380;10.326;2023-04-01T02:50:33;8.20;99.90
59881;DHT22;45751;51.380;10.326;2023-04-01T02:53:01;8.20;99.90
59881;DHT22;45751;51.380;10.326;2023-04-01T02:55:30;8.30;99.90
59881;DHT22;45751;51.380;10.326;2023-04-01T02:57:58;8.20;99.90
59881;DHT22;45751;51.380;10.326;2023-04-01T03:00:26;8.20;99.90
59881;DHT22;45751;51.380;10.326;2023-04-01T03:02:53;8.20;99.90
59881;DHT22;45751;51.380;10.326;2023-04-01T03:05:21;8.20;99.90
59881;DHT22;45751;51.380;10.326;2023-04-01T03:07:48;8.20;99.90
59881;DHT22;45751;51.380;10.326;2023-04-01T03:10:15;8.20;99.90
59881;DHT22;45751;51.380;10.326;2023-04-01T03:12:42;8.20;99.90
59881;DHT22;45751;51.380;10.326;2023-04-01T03:15:11;8.20;99.90
59881;DHT22;45751;51.380;10.326;2023-04-01T03:17:39;8.20;99.90
59881;DHT22;45751;51.380;10.326;2023-04-01T03:20:07;8.20;99.90
59881;DHT22;45751;51.380;10.326;2023-04-01T03:22:35;8.20;99.90
59881;DHT22;45751;51.380;10.326;2023-04-01T03:25:04;8.20;99.90
59881;DHT22;45751;51.380;10.326;2023-04-01T03:27:32;8.20;99.90
59881;DHT22;45751;51.380;10.326;2023-04-01T03:29:58;8.00;99.90
59881;DHT22;45751;51.380;10.326;2023-04-01T03:32:26;8.10;99.90
59881;DHT22;45751;51.380;10.326;2023-04-01T03:34:53;8.10;99.90
59881;DHT22;45751;51.380;10.326;2023-04-01T03:37:20;8.10;99.90
59881;DHT22;45751;51.380;10.326;2023-04-01T03:39:48;8.10;99.90
59881;DHT22;45751;51.380;10.326;2023-04-01T03:42:15;8.10;99.90
59881;DHT22;45751;51.380;10.326;2023-04-01T03:44:42;8.10;99.90
59881;DHT22;45751;51.380;10.326;2023-04-01T03:47:10;8.10;99.90
59881;DHT22;45751;51.380;10.326;2023-04-01T03:49:37;8.10;99.90
59881;DHT22;45751;51.380;10.326;2023-04-01T03:52:04;8.10;99.90
59881;DHT22;45751;51.380;10.326;2023-04-01T03:54:31;8.10;99.90
59881;DHT22;45751;51.380;10.326;2023-04-01T03:56:58;8.10;99.90
59881;DHT22;45751;51.380;10.326;2023-04-01T03:59:25;8.10;99.90
59881;DHT22;45751;51.380;10.326;2023-04-01T04:01:52;8.10;99.90
59881;DHT22;45751;51.380;10.326;2023-04-01T04:04:19;8.00;99.90
59881;DHT22;45751;51.380;10.326;2023-04-01T04:06:47;8.10;99.90
59881;DHT22;45751;51.380;10.326;2023-04-01T04:09:15;8.00;99.90
59881;DHT22;45751;51.380;10.326;2023-04-01T04:11:42;8.00;99.90
59881;DHT22;45751;51.380;10.326;2023-04-01T04:14:09;8.00;99.90
59881;DHT22;45751;51.380;10.326;2023-04-01T04:16:36;8.00;99.90
59881;DHT22;45751;51.380;10.326;2023-04-01T04:19:04;8.00;99.90
59881;DHT22;45751;51.380;10.326;2023-04-01T04:21:31;8.00;99.90
59881;DHT22;45751;51.380;10.326;2023-04-01T04:24:00;8.00;99.90
59881;DHT22;45751;51.380;10.326;2023-04-01T04:26:32;8.00;99.90
59881;DHT22;45751;51.380;10.326;2023-04-01T04:29:00;7.90;99.90
59881;DHT22;45751;51.380;10.326;2023-04-01T04:31:27;7.90;99.90
59881;DHT22;45751;51.380;10.326;2023-04-01T04:33:59;8.00;99.90
59881;DHT22;45751;51.380;10.326;2023-04-01T04:36:26;7.90;99.90
59881;DHT22;45751;51.380;10.326;2023-04-01T04:38:53;7.90;99.90
59881;DHT22;45751;51.380;10.326;2023-04-01T04:41:21;7.90;99.90
59881;DHT22;45751;51.380;10.326;2023-04-01T04:43:54;8.00;99.90
59881;DHT22;45751;51.380;10.326;2023-04-01T04:46:23;7.90;99.90
59881;DHT22;45751;51.380;10.326;2023-04-01T04:48:56;7.90;99.90
59881;DHT22;45751;51.380;10.326;2023-04-01T04:51:24;7.80;99.90
59881;DHT22;45751;51.380;10.326;2023-04-01T04:53:51;7.90;99.90
59881;DHT22;45751;51.380;10.326;2023-04-01T04:56:23;7.90;99.90
59881;DHT22;45751;51.380;10.326;2023-04-01T04:59:07;7.80;99.90
59881;DHT22;45751;51.380;10.326;2023-04-01T05:01:46;7.80;99.90
59881;DHT22;45751;51.380;10.326;2023-04-01T05:04:13;7.90;99.90
59881;DHT22;45751;51.380;10.326;2023-04-01T05:06:41;7.80;99.90
59881;DHT22;45751;51.380;10.326;2023-04-01T05:09:08;7.80;99.90
59881;DHT22;45751;51.380;10.326;2023-04-01T05:11:35;7.90;99.90
59881;DHT22;45751;51.380;10.326;2023-04-01T05:14:02;7.90;99.90
59881;DHT22;45751;51.380;10.326;2023-04-01T05:16:31;7.90;99.90
59881;DHT22;45751;51.380;10.326;2023-04-01T05:18:59;7.80;99.90
59881;DHT22;45751;51.380;10.326;2023-04-01T05:21:25;7.90;99.90
59881;DHT22;45751;51.380;10.326;2023-04-01T05:23:54;7.80;99.90
59881;DHT22;45751;51.380;10.326;2023-04-01T05:26:22;7.80;99.90
59881;DHT22;45751;51.380;10.326;2023-04-01T05:28:49;7.90;99.90
59881;DHT22;45751;51.380;10.326;2023-04-01T05:31:16;7.90;99.90
59881;DHT22;45751;51.380;10.326;2023-04-01T05:33:46;7.90;99.90
59881;DHT22;45751;51.380;10.326;2023-04-01T05:36:15;7.90;99.90
59881;DHT22;45751;51.380;10.326;2023-04-01T05:38:43;7.80;99.90
59881;DHT22;45751;51.380;10.326;2023-04-01T05:41:13;7.90;99.90
59881;DHT22;45751;51.380;10.326;2023-04-01T05:43:43;7.90;99.90
59881;DHT22;45751;51.380;10.326;2023-04-01T05:46:43;7.90;99.90
59881;DHT22;45751;51.380;10.326;2023-04-01T05:49:28;7.90;99.90
59881;DHT22;45751;51.380;10.326;2023-04-01T05:51:55;8.00;99.90
59881;DHT22;45751;51.380;10.326;2023-04-01T05:54:22;8.00;99.90
59881;DHT22;45751;51.380;10.326;2023-04-01T05:56:50;8.00;99.90
59881;DHT22;45751;51.380;10.326;2023-04-01T05:59:19;8.10;99.90
59881;DHT22;45751;51.380;10.326;2023-04-01T06:01:46;8.10;99.90
59881;DHT22;45751;51.380;10.326;2023-04-01T06:04:14;8.10;99.90
59881;DHT22;45751;51.380;10.326;2023-04-01T06:06:43;8.20;99.90
59881;DHT22;45751;51.380;10.326;2023-04-01T06:09:16;8.10;99.90
59881;DHT22;45751;51.380;10.326;2023-04-01T06:25:54;8.20;99.90
59881;DHT22;45751;51.380;10.326;2023-04-01T06:28:50;8.20;99.90
59881;DHT22;45751;51.380;10.326;2023-04-01T06:45:55;8.20;99.90
59881;DHT22;45751;51.380;10.326;2023-04-01T06:58:24;8.20;99.90
59881;DHT22;45751;51.380;10.326;2023-04-01T07:00:56;8.20;99.90
59881;DHT22;45751;51.380;10.326;2023-04-01T07:03:41;8.20;99.90
59881;DHT22;45751;51.380;10.326;2023-04-01T07:06:22;8.20;99.90
59881;DHT22;45751;51.380;10.326;2023-04-01T07:08:54;8.30;99.90
59881;DHT22;45751;51.380;10.326;2023-04-01T07:11:31;8.30;99.90
59881;DHT22;45751;51.380;10.326;2023-04-01T07:14:36;8.30;99.90
59881;DHT22;45751;51.380;10.326;2023-04-01T07:19:44;8.30;99.90
59881;DHT22;45751;51.380;10.326;2023-04-01T07:25:18;8.30;99.90
59881;DHT22;45751;51.380;10.326;2023-04-01T07:28:10;8.30;99.90
59881;DHT22;45751;51.380;10.326;2023-04-01T07:36:25;8.40;99.90
59881;DHT22;45751;51.380;10.326;2023-04-01T07:39:06;8.40;99.90
59881;DHT22;45751;51.380;10.326;2023-04-01T07:47:33;8.50;99.90
59881;DHT22;45751;51.380;10.326;2023-04-01T07:50:31;8.50;99.90
59881;DHT22;45751;51.380;10.326;2023-04-01T07:53:21;8.50;99.90
59881;DHT22;45751;51.380;10.326;2023-04-01T08:00:17;8.60;99.90
59881;DHT22;45751;51.380;10.326;2023-04-01T08:05:29;8.60;99.90
59881;DHT22;45751;51.380;10.326;2023-04-01T08:14:21;8.70;99.90
59881;DHT22;45751;51.380;10.326;2023-04-01T08:23:19;8.80;99.90
59881;DHT22;45751;51.380;10.326;2023-04-01T08:28:49;8.80;99.90
59881;DHT22;45751;51.380;10.326;2023-04-01T08:31:39;8.80;99.90
59881;DHT22;45751;51.380;10.326;2023-04-01T08:34:19;8.90;99.90
59881;DHT22;45751;51.380;10.326;2023-04-01T08:36:51;8.90;99.90
59881;DHT22;45751;51.380;10.326;2023-04-01T08:39:34;8.90;99.90
59881;DHT22;45751;51.380;10.326;2023-04-01T08:53:00;8.90;99.90
59881;DHT22;45751;51.380;10.326;2023-04-01T09:11:52;9.00;99.90
59881;DHT22;45751;51.380;10.326;2023-04-01T09:17:33;9.00;99.90
59881;DHT22;45751;51.380;10.326;2023-04-01T09:23:29;9.00;99.90
59881;DHT22;45751;51.380;10.326;2023-04-01T09:31:51;9.10;99.90
59881;DHT22;45751;51.380;10.326;2023-04-01T09:35:21;9.00;99.90
59881;DHT22;45751;51.380;10.326;2023-04-01T09:40:58;9.10;99.90
59881;DHT22;45751;51.380;10.326;2023-04-01T09:54:50;9.10;99.90
59881;DHT22;45751;51.380;10.326;2023-04-01T10:06:22;9.30;99.90
59881;DHT22;45751;51.380;10.326;2023-04-01T10:28:36;9.60;99.90
59881;DHT22;45751;51.380;10.326;2023-04-01T11:11:03;9.70;99.90
59881;DHT22;45751;51.380;10.326;2023-04-01T11:34:04;9.70;99.90
59881;DHT22;45751;51.380;10.326;2023-04-01T11:39:14;9.70;99.90
59881;DHT22;45751;51.380;10.326;2023-04-01T11:42:30;9.70;99.90
59881;DHT22;45751;51.380;10.326;2023-04-01T11:45:36;9.70;99.90
59881;DHT22;45751;51.380;10.326;2023-04-01T12:00:35;9.90;99.90
59881;DHT22;45751;51.380;10.326;2023-04-01T12:11:38;10.00;99.90
59881;DHT22;45751;51.380;10.326;2023-04-01T12:14:22;10.00;99.90
59881;DHT22;45751;51.380;10.326;2023-04-01T12:17:08;10.00;99.90
59881;DHT22;45751;51.380;10.326;2023-04-01T12:19:48;10.00;99.90
59881;DHT22;45751;51.380;10.326;2023-04-01T12:42:50;10.10;99.90
59881;DHT22;45751;51.380;10.326;2023-04-01T12:45:34;10.10;99.90
59881;DHT22;45751;51.380;10.326;2023-04-01T12:56:56;10.20;99.90
59881;DHT22;45751;51.380;10.326;2023-04-01T13:02:13;10.40;99.90
59881;DHT22;45751;51.380;10.326;2023-04-01T13:10:37;10.50;99.90
59881;DHT22;45751;51.380;10.326;2023-04-01T13:19:17;10.60;99.90
59881;DHT22;45751;51.380;10.326;2023-04-01T13:22:02;10.60;99.90
59881;DHT22;45751;51.380;10.326;2023-04-01T13:58:38;10.40;99.90
59881;DHT22;45751;51.380;10.326;2023-04-01T14:12:35;10.20;99.90
59881;DHT22;45751;51.380;10.326;2023-04-01T14:15:18;10.20;99.90
59881;DHT22;45751;51.380;10.326;2023-04-01T14:26:25;10.20;99.90
59881;DHT22;45751;51.380;10.326;2023-04-01T14:29:18;10.20;99.90
59881;DHT22;45751;51.380;10.326;2023-04-01T14:35:46;10.20;99.90
59881;DHT22;45751;51.380;10.326;2023-04-01T14:40:56;10.30;99.90
59881;DHT22;45751;51.380;10.326;2023-04-01T14:46:35;10.40;99.90
59881;DHT22;45751;51.380;10.326;2023-04-01T14:49:32;10.50;99.90
59881;DHT22;45751;51.380;10.326;2023-04-01T14:52:33;10.60;99.90
59881;DHT22;45751;51.380;10.326;2023-04-01T14:55:02;10.60;99.90
59881;DHT22;45751;51.380;10.326;2023-04-01T14:57:37;10.60;99.90
59881;DHT22;45751;51.380;10.326;2023-04-01T15:08:00;10.50;99.90
59881;DHT22;45751;51.380;10.326;2023-04-01T15:10:48;10.50;99.90
59881;DHT22;45751;51.380;10.326;2023-04-01T15:16:31;10.50;99.90
59881;DHT22;45751;51.380;10.326;2023-04-01T15:30:12;10.50;99.90
59881;DHT22;45751;51.380;10.326;2023-04-01T15:40:49;10.60;99.90
59881;DHT22;45751;51.380;10.326;2023-04-01T15:43:43;10.60;99.90
59881;DHT22;45751;51.380;10.326;2023-04-01T15:46:45;10.60;99.90
59881;DHT22;45751;51.380;10.326;2023-04-01T15:57:28;10.60;99.90
59881;DHT22;45751;51.380;10.326;2023-04-01T16:06:09;10.60;99.90
59881;DHT22;45751;51.380;10.326;2023-04-01T16:08:59;10.80;99.90
59881;DHT22;45751;51.380;10.326;2023-04-01T16:19:55;10.60;99.90
59881;DHT22;45751;51.380;10.326;2023-04-01T16:30:48;10.50;99.90
59881;DHT22;45751;51.380;10.326;2023-04-01T16:36:28;10.50;99.90
59881;DHT22;45751;51.380;10.326;2023-04-01T16:42:22;10.40;99.90
59881;DHT22;45751;51.380;10.326;2023-04-01T16:45:19;10.50;99.90
59881;DHT22;45751;51.380;10.326;2023-04-01T16:47:53;10.40;99.90
59881;DHT22;45751;51.380;10.326;2023-04-01T16:50:37;10.40;99.90
59881;DHT22;45751;51.380;10.326;2023-04-01T16:53:10;10.30;99.90
59881;DHT22;45751;51.380;10.326;2023-04-01T16:58:25;10.40;99.90
59881;DHT22;45751;51.380;10.326;2023-04-01T17:01:04;10.40;99.90
59881;DHT22;45751;51.380;10.326;2023-04-01T17:03:38;10.30;99.90
59881;DHT22;45751;51.380;10.326;2023-04-01T17:09:21;10.30;99.90
59881;DHT22;45751;51.380;10.326;2023-04-01T17:11:55;10.30;99.90
59881;DHT22;45751;51.380;10.326;2023-04-01T17:14:25;10.30;99.90
59881;DHT22;45751;51.380;10.326;2023-04-01T17:19:45;10.20;99.90
59881;DHT22;45751;51.380;10.326;2023-04-01T17:25:13;10.20;99.90
59881;DHT22;45751;51.380;10.326;2023-04-01T17:36:56;10.10;99.90
59881;DHT22;45751;51.380;10.326;2023-04-01T17:39:55;10.10;99.90
59881;DHT22;45751;51.380;10.326;2023-04-01T17:42:45;10.10;99.90
59881;DHT22;45751;51.380;10.326;2023-04-01T17:45:45;10.00;99.90
59881;DHT22;45751;51.380;10.326;2023-04-01T17:50:59;10.00;99.90
59881;DHT22;45751;51.380;10.326;2023-04-01T18:02:27;9.90;99.90
59881;DHT22;45751;51.380;10.326;2023-04-01T18:05:17;9.90;99.90
59881;DHT22;45751;51.380;10.326;2023-04-01T18:22:44;9.80;99.90
59881;DHT22;45751;51.380;10.326;2023-04-01T18:25:34;9.80;99.90
59881;DHT22;45751;51.380;10.326;2023-04-01T18:30:44;9.70;99.90
59881;DHT22;45751;51.380;10.326;2023-04-01T18:33:18;9.70;99.90
59881;DHT22;45751;51.380;10.326;2023-04-01T18:36:38;9.80;99.90
59881;DHT22;45751;51.380;10.326;2023-04-01T18:39:33;9.70;99.90
59881;DHT22;45751;51.380;10.326;2023-04-01T18:41:56;9.70;99.90
59881;DHT22;45751;51.380;10.326;2023-04-01T18:50:22;9.70;99.90
59881;DHT22;45751;51.380;10.326;2023-04-01T18:55:46;9.70;99.90
59881;DHT22;45751;51.380;10.326;2023-04-01T19:01:19;9.70;99.90
59881;DHT22;45751;51.380;10.326;2023-04-01T19:06:46;9.70;99.90
59881;DHT22;45751;51.380;10.326;2023-04-01T19:09:48;9.70;99.90
59881;DHT22;45751;51.380;10.326;2023-04-01T19:12:38;9.70;99.90
59881;DHT22;45751;51.380;10.326;2023-04-01T19:20:42;9.70;99.90
59881;DHT22;45751;51.380;10.326;2023-04-01T19:26:33;9.70;99.90
59881;DHT22;45751;51.380;10.326;2023-04-01T19:34:41;9.60;99.90
59881;DHT22;45751;51.380;10.326;2023-04-01T19:37:45;9.60;99.90
59881;DHT22;45751;51.380;10.326;2023-04-01T19:40:47;9.60;99.90
59881;DHT22;45751;51.380;10.326;2023-04-01T19:46:38;9.60;99.90
59881;DHT22;45751;51.380;10.326;2023-04-01T19:49:29;9.60;99.90
59881;DHT22;45751;51.380;10.326;2023-04-01T20:14:30;9.50;99.90
59881;DHT22;45751;51.380;10.326;2023-04-01T20:17:16;9.50;99.90
59881;DHT22;45751;51.380;10.326;2023-04-01T20:44:43;9.20;99.90
59881;DHT22;45751;51.380;10.326;2023-04-01T21:06:44;8.80;99.90
59881;DHT22;45751;51.380;10.326;2023-04-01T21:09:37;8.70;99.90
59881;DHT22;45751;51.380;10.326;2023-04-01T21:15:31;8.60;99.90
59881;DHT22;45751;51.380;10.326;2023-04-01T21:36:51;8.30;99.90
59881;DHT22;45751;51.380;10.326;2023-04-01T21:39:42;8.20;99.90
59881;DHT22;45751;51.380;10.326;2023-04-01T21:53:34;8.10;99.90
59881;DHT22;45751;51.380;10.326;2023-04-01T22:04:43;8.00;99.90
59881;DHT22;45751;51.380;10.326;2023-04-01T22:07:21;7.90;99.90
59881;DHT22;45751;51.380;10.326;2023-04-01T22:10:05;7.90;99.90
59881;DHT22;45751;51.380;10.326;2023-04-01T22:15:29;8.00;99.90
59881;DHT22;45751;51.380;10.326;2023-04-01T22:18:06;7.80;99.90
59881;DHT22;45751;51.380;10.326;2023-04-01T22:23:32;7.80;99.90
59881;DHT22;45751;51.380;10.326;2023-04-01T22:26:23;7.80;99.90
59881;DHT22;45751;51.380;10.326;2023-04-01T22:31:55;7.80;99.90
59881;DHT22;45751;51.380;10.326;2023-04-01T22:42:43;7.60;99.90
59881;DHT22;45751;51.380;10.326;2023-04-01T22:56:21;7.50;99.90
59881;DHT22;45751;51.380;10.326;2023-04-01T23:02:01;7.50;99.90
59881;DHT22;45751;51.380;10.326;2023-04-01T23:04:35;7.40;99.90
59881;DHT22;45751;51.380;10.326;2023-04-01T23:07:38;7.30;99.90
59881;DHT22;45751;51.380;10.326;2023-04-01T23:10:05;7.40;99.90
59881;DHT22;45751;51.380;10.326;2023-04-01T23:12:39;7.30;99.90
59881;DHT22;45751;51.380;10.326;2023-04-01T23:15:13;7.30;99.90
59881;DHT22;45751;51.380;10.326;2023-04-01T23:21:18;7.20;99.90
59881;DHT22;45751;51.380;10.326;2023-04-01T23:23:58;7.20;99.90
59881;DHT22;45751;51.380;10.326;2023-04-01T23:26:36;7.20;99.90
59881;DHT22;45751;51.380;10.326;2023-04-01T23:29:14;7.10;99.90
59881;DHT22;45751;51.380;10.326;2023-04-01T23:31:43;7.10;99.90
59881;DHT22;45751;51.380;10.326;2023-04-01T23:39:28;7.10;99.90
59881;DHT22;45751;51.380;10.326;2023-04-01T23:42:00;7.00;99.90
59881;DHT22;45751;51.380;10.326;2023-04-01T23:44:29;7.00;99.90
59881;DHT22;45751;51.380;10.326;2023-04-01T23:46:57;7.00;99.90
59881;DHT22;45751;51.380;10.326;2023-04-01T23:49:30;6.90;99.90
59881;DHT22;45751;51.380;10.326;2023-04-01T23:54:52;6.90;99.90
59881;DHT22;45751;51.380;10.326;2023-04-01T23:57:39;6.90;99.90
